KHSP/HSP METAR and TAF weather

Enter ICAO airport designator
Station Type Date Time Source
KHSP METAR 2019/05/20 10:30 UTC NOAA

KHSP 201030Z AUTO 25012KT 10SM SCT034 BKN080 OVC090 18/17 A3007 RMK AO2 T01780167


Station Type Date Time Source
KHSP Decoded METAR 2019/05/20 10:30 UTC NOAA

Hot Springs / Ingalls, VA, United States (KHSP) 37-57N 079-50W
May 20, 2019 - 06:30 AM EDT / 2019.05.20 1030 UTC
Wind: from the WSW (250 degrees) at 14 MPH (12 KT):0
Visibility: 10 mile(s):0
Sky conditions: overcast
Temperature: 64.0 F (17.8 C)
Dew Point: 62.1 F (16.7 C)
Relative Humidity: 93%
Pressure (altimeter): 30.07 in. Hg (1018 hPa)
ob: KHSP 201030Z AUTO 25012KT 10SM SCT034 BKN080 OVC090 18/17 A3007 RMK AO2 T01780167
cycle: 10

Station Type Date Time Source
KHSP TAF UTC NOAA

Error!

Example: see airport list